sensor_id;sensor_type;location;lat;lon;timestamp;temperature;humidity
15834;DHT22;8017;50.812;4.934;2023-03-21T00:00:35;10.80;99.90
15834;DHT22;8017;50.812;4.934;2023-03-21T00:03:37;10.90;99.90
15834;DHT22;8017;50.812;4.934;2023-03-21T00:06:38;10.80;99.90
15834;DHT22;8017;50.812;4.934;2023-03-21T00:09:40;10.80;99.90
15834;DHT22;8017;50.812;4.934;2023-03-21T00:12:44;10.90;99.90
15834;DHT22;8017;50.812;4.934;2023-03-21T00:15:49;11.00;99.90
15834;DHT22;8017;50.812;4.934;2023-03-21T00:18:54;10.90;99.90
15834;DHT22;8017;50.812;4.934;2023-03-21T00:21:57;11.00;99.90
15834;DHT22;8017;50.812;4.934;2023-03-21T00:25:01;10.90;99.90
15834;DHT22;8017;50.812;4.934;2023-03-21T00:28:05;10.90;99.90
15834;DHT22;8017;50.812;4.934;2023-03-21T00:31:07;10.80;99.90
15834;DHT22;8017;50.812;4.934;2023-03-21T00:34:09;10.80;99.90
15834;DHT22;8017;50.812;4.934;2023-03-21T00:37:11;10.70;99.90
15834;DHT22;8017;50.812;4.934;2023-03-21T00:40:16;10.80;99.90
15834;DHT22;8017;50.812;4.934;2023-03-21T00:43:20;10.90;99.90
15834;DHT22;8017;50.812;4.934;2023-03-21T00:46:22;10.80;99.90
15834;DHT22;8017;50.812;4.934;2023-03-21T00:49:24;10.80;99.90
15834;DHT22;8017;50.812;4.934;2023-03-21T00:52:27;10.80;99.90
15834;DHT22;8017;50.812;4.934;2023-03-21T00:55:29;10.80;99.90
15834;DHT22;8017;50.812;4.934;2023-03-21T00:58:32;10.80;99.90
15834;DHT22;8017;50.812;4.934;2023-03-21T01:01:34;10.80;99.90
15834;DHT22;8017;50.812;4.934;2023-03-21T01:04:36;10.70;99.90
15834;DHT22;8017;50.812;4.934;2023-03-21T01:07:38;10.70;99.90
15834;DHT22;8017;50.812;4.934;2023-03-21T01:10:41;10.70;99.90
15834;DHT22;8017;50.812;4.934;2023-03-21T01:13:45;10.70;99.90
15834;DHT22;8017;50.812;4.934;2023-03-21T01:16:47;10.80;99.90
15834;DHT22;8017;50.812;4.934;2023-03-21T01:19:50;10.80;99.90
15834;DHT22;8017;50.812;4.934;2023-03-21T01:22:52;10.70;99.90
15834;DHT22;8017;50.812;4.934;2023-03-21T01:25:55;10.70;99.90
15834;DHT22;8017;50.812;4.934;2023-03-21T01:28:58;10.70;99.90
15834;DHT22;8017;50.812;4.934;2023-03-21T01:32:00;10.70;99.90
15834;DHT22;8017;50.812;4.934;2023-03-21T01:35:03;10.80;99.90
15834;DHT22;8017;50.812;4.934;2023-03-21T01:38:05;10.80;99.90
15834;DHT22;8017;50.812;4.934;2023-03-21T01:41:08;10.80;99.90
15834;DHT22;8017;50.812;4.934;2023-03-21T01:44:17;10.80;99.90
15834;DHT22;8017;50.812;4.934;2023-03-21T01:47:19;10.80;99.90
15834;DHT22;8017;50.812;4.934;2023-03-21T01:50:23;10.90;99.90
15834;DHT22;8017;50.812;4.934;2023-03-21T01:53:27;10.80;99.90
15834;DHT22;8017;50.812;4.934;2023-03-21T01:56:34;10.80;99.90
15834;DHT22;8017;50.812;4.934;2023-03-21T01:59:40;10.80;99.90
15834;DHT22;8017;50.812;4.934;2023-03-21T02:02:44;10.80;99.90
15834;DHT22;8017;50.812;4.934;2023-03-21T02:05:54;10.80;99.90
15834;DHT22;8017;50.812;4.934;2023-03-21T02:09:02;10.80;99.90
15834;DHT22;8017;50.812;4.934;2023-03-21T02:12:04;10.80;99.90
15834;DHT22;8017;50.812;4.934;2023-03-21T02:15:10;10.80;99.90
15834;DHT22;8017;50.812;4.934;2023-03-21T02:18:16;10.80;99.90
15834;DHT22;8017;50.812;4.934;2023-03-21T02:25:15;10.80;99.90
15834;DHT22;8017;50.812;4.934;2023-03-21T02:28:25;10.80;99.90
15834;DHT22;8017;50.812;4.934;2023-03-21T02:31:40;10.90;99.90
15834;DHT22;8017;50.812;4.934;2023-03-21T02:34:58;10.90;99.90
15834;DHT22;8017;50.812;4.934;2023-03-21T02:38:08;10.90;99.90
15834;DHT22;8017;50.812;4.934;2023-03-21T02:41:16;10.90;99.90
15834;DHT22;8017;50.812;4.934;2023-03-21T02:44:23;11.00;99.90
15834;DHT22;8017;50.812;4.934;2023-03-21T02:47:29;10.80;99.90
15834;DHT22;8017;50.812;4.934;2023-03-21T02:50:36;10.80;99.90
15834;DHT22;8017;50.812;4.934;2023-03-21T02:53:45;10.90;99.90
15834;DHT22;8017;50.812;4.934;2023-03-21T02:56:50;11.00;99.90
15834;DHT22;8017;50.812;4.934;2023-03-21T02:59:53;11.00;99.90
15834;DHT22;8017;50.812;4.934;2023-03-21T03:02:56;10.90;99.90
15834;DHT22;8017;50.812;4.934;2023-03-21T03:05:59;10.80;99.90
15834;DHT22;8017;50.812;4.934;2023-03-21T03:09:16;10.80;99.90
15834;DHT22;8017;50.812;4.934;2023-03-21T03:12:26;10.70;99.90
15834;DHT22;8017;50.812;4.934;2023-03-21T03:15:37;10.80;99.90
15834;DHT22;8017;50.812;4.934;2023-03-21T03:18:50;10.80;99.90
15834;DHT22;8017;50.812;4.934;2023-03-21T03:21:57;10.80;99.90
15834;DHT22;8017;50.812;4.934;2023-03-21T03:25:04;10.80;99.90
15834;DHT22;8017;50.812;4.934;2023-03-21T03:28:08;10.70;99.90
15834;DHT22;8017;50.812;4.934;2023-03-21T03:31:13;10.90;99.90
15834;DHT22;8017;50.812;4.934;2023-03-21T03:34:19;10.90;99.90
15834;DHT22;8017;50.812;4.934;2023-03-21T03:37:24;10.90;99.90
15834;DHT22;8017;50.812;4.934;2023-03-21T03:40:33;11.00;99.90
15834;DHT22;8017;50.812;4.934;2023-03-21T03:43:39;11.00;99.90
15834;DHT22;8017;50.812;4.934;2023-03-21T03:46:47;11.00;99.90
15834;DHT22;8017;50.812;4.934;2023-03-21T03:49:54;11.10;99.90
15834;DHT22;8017;50.812;4.934;2023-03-21T03:53:02;11.20;99.90
15834;DHT22;8017;50.812;4.934;2023-03-21T03:56:09;11.10;99.90
15834;DHT22;8017;50.812;4.934;2023-03-21T03:59:11;11.10;99.90
15834;DHT22;8017;50.812;4.934;2023-03-21T04:02:19;11.10;99.90
15834;DHT22;8017;50.812;4.934;2023-03-21T04:05:21;11.00;99.90
15834;DHT22;8017;50.812;4.934;2023-03-21T04:08:24;11.00;99.90
15834;DHT22;8017;50.812;4.934;2023-03-21T04:11:27;11.10;99.90
15834;DHT22;8017;50.812;4.934;2023-03-21T04:14:29;11.20;99.90
15834;DHT22;8017;50.812;4.934;2023-03-21T04:17:31;11.00;99.90
15834;DHT22;8017;50.812;4.934;2023-03-21T04:20:33;11.10;99.90
15834;DHT22;8017;50.812;4.934;2023-03-21T04:23:35;11.20;99.90
15834;DHT22;8017;50.812;4.934;2023-03-21T04:26:39;11.20;99.90
15834;DHT22;8017;50.812;4.934;2023-03-21T04:29:41;11.10;99.90
15834;DHT22;8017;50.812;4.934;2023-03-21T04:32:43;11.00;99.90
15834;DHT22;8017;50.812;4.934;2023-03-21T04:35:53;11.00;99.90
15834;DHT22;8017;50.812;4.934;2023-03-21T04:38:56;11.10;99.90
15834;DHT22;8017;50.812;4.934;2023-03-21T04:42:01;11.00;99.90
15834;DHT22;8017;50.812;4.934;2023-03-21T04:45:04;10.90;99.90
15834;DHT22;8017;50.812;4.934;2023-03-21T04:48:06;11.00;99.90
15834;DHT22;8017;50.812;4.934;2023-03-21T04:51:08;11.00;99.90
15834;DHT22;8017;50.812;4.934;2023-03-21T04:54:10;11.10;99.90
15834;DHT22;8017;50.812;4.934;2023-03-21T04:57:14;11.10;99.90
15834;DHT22;8017;50.812;4.934;2023-03-21T05:00:17;11.10;99.90
15834;DHT22;8017;50.812;4.934;2023-03-21T05:03:19;11.00;99.90
15834;DHT22;8017;50.812;4.934;2023-03-21T05:06:21;11.00;99.90
15834;DHT22;8017;50.812;4.934;2023-03-21T05:09:23;11.10;99.90
15834;DHT22;8017;50.812;4.934;2023-03-21T05:12:27;11.10;99.90
15834;DHT22;8017;50.812;4.934;2023-03-21T05:15:29;11.10;99.90
15834;DHT22;8017;50.812;4.934;2023-03-21T05:18:31;11.00;99.90
15834;DHT22;8017;50.812;4.934;2023-03-21T05:21:38;10.90;99.90
15834;DHT22;8017;50.812;4.934;2023-03-21T05:24:41;11.00;99.90
15834;DHT22;8017;50.812;4.934;2023-03-21T05:27:50;11.00;99.90
15834;DHT22;8017;50.812;4.934;2023-03-21T05:30:54;10.90;99.90
15834;DHT22;8017;50.812;4.934;2023-03-21T05:33:55;10.90;99.90
15834;DHT22;8017;50.812;4.934;2023-03-21T05:36:57;11.00;99.90
15834;DHT22;8017;50.812;4.934;2023-03-21T05:39:59;11.00;99.90
15834;DHT22;8017;50.812;4.934;2023-03-21T05:43:02;11.00;99.90
15834;DHT22;8017;50.812;4.934;2023-03-21T05:46:05;11.00;99.90
15834;DHT22;8017;50.812;4.934;2023-03-21T05:49:08;11.10;99.90
15834;DHT22;8017;50.812;4.934;2023-03-21T05:52:10;11.10;99.90
15834;DHT22;8017;50.812;4.934;2023-03-21T05:55:12;11.10;99.90
15834;DHT22;8017;50.812;4.934;2023-03-21T05:58:15;11.10;99.90
15834;DHT22;8017;50.812;4.934;2023-03-21T06:01:17;11.20;99.90
15834;DHT22;8017;50.812;4.934;2023-03-21T06:04:19;11.10;99.90
15834;DHT22;8017;50.812;4.934;2023-03-21T06:07:21;11.10;99.90
15834;DHT22;8017;50.812;4.934;2023-03-21T06:10:23;11.20;99.90
15834;DHT22;8017;50.812;4.934;2023-03-21T06:13:26;11.30;99.90
15834;DHT22;8017;50.812;4.934;2023-03-21T06:16:28;11.20;99.90
15834;DHT22;8017;50.812;4.934;2023-03-21T06:19:30;11.20;99.90
15834;DHT22;8017;50.812;4.934;2023-03-21T06:22:33;11.20;99.90
15834;DHT22;8017;50.812;4.934;2023-03-21T06:25:35;11.10;99.90
15834;DHT22;8017;50.812;4.934;2023-03-21T06:28:38;11.10;99.90
15834;DHT22;8017;50.812;4.934;2023-03-21T06:31:40;11.20;99.90
15834;DHT22;8017;50.812;4.934;2023-03-21T06:34:42;11.20;99.90
15834;DHT22;8017;50.812;4.934;2023-03-21T06:37:44;11.20;99.90
15834;DHT22;8017;50.812;4.934;2023-03-21T06:40:48;11.20;99.90
15834;DHT22;8017;50.812;4.934;2023-03-21T06:43:52;11.10;99.90
15834;DHT22;8017;50.812;4.934;2023-03-21T06:46:54;11.20;99.90
15834;DHT22;8017;50.812;4.934;2023-03-21T06:49:56;11.20;99.90
15834;DHT22;8017;50.812;4.934;2023-03-21T06:52:58;11.30;99.90
15834;DHT22;8017;50.812;4.934;2023-03-21T06:56:00;11.40;99.90
15834;DHT22;8017;50.812;4.934;2023-03-21T06:59:03;11.50;99.90
15834;DHT22;8017;50.812;4.934;2023-03-21T07:02:05;11.30;99.90
15834;DHT22;8017;50.812;4.934;2023-03-21T07:05:08;11.30;99.90
15834;DHT22;8017;50.812;4.934;2023-03-21T07:08:10;11.30;99.90
15834;DHT22;8017;50.812;4.934;2023-03-21T07:11:13;11.40;99.90
15834;DHT22;8017;50.812;4.934;2023-03-21T07:14:16;11.50;99.90
15834;DHT22;8017;50.812;4.934;2023-03-21T07:17:18;11.60;99.90
15834;DHT22;8017;50.812;4.934;2023-03-21T07:20:20;11.60;99.90
15834;DHT22;8017;50.812;4.934;2023-03-21T07:23:24;11.60;99.90
15834;DHT22;8017;50.812;4.934;2023-03-21T07:26:26;11.60;99.90
15834;DHT22;8017;50.812;4.934;2023-03-21T07:29:30;11.60;99.90
15834;DHT22;8017;50.812;4.934;2023-03-21T07:32:32;11.50;99.90
15834;DHT22;8017;50.812;4.934;2023-03-21T07:35:35;11.40;99.90
15834;DHT22;8017;50.812;4.934;2023-03-21T07:38:37;11.30;99.90
15834;DHT22;8017;50.812;4.934;2023-03-21T07:41:39;11.20;99.90
15834;DHT22;8017;50.812;4.934;2023-03-21T07:44:42;11.30;99.90
15834;DHT22;8017;50.812;4.934;2023-03-21T07:47:44;11.30;99.90
15834;DHT22;8017;50.812;4.934;2023-03-21T07:50:48;11.30;99.90
15834;DHT22;8017;50.812;4.934;2023-03-21T07:53:50;11.40;99.90
15834;DHT22;8017;50.812;4.934;2023-03-21T07:56:52;11.40;99.90
15834;DHT22;8017;50.812;4.934;2023-03-21T07:59:55;11.40;99.90
15834;DHT22;8017;50.812;4.934;2023-03-21T08:02:58;11.50;99.90
15834;DHT22;8017;50.812;4.934;2023-03-21T08:06:01;11.70;99.90
15834;DHT22;8017;50.812;4.934;2023-03-21T08:09:03;11.90;99.90
15834;DHT22;8017;50.812;4.934;2023-03-21T08:12:05;12.10;99.90
15834;DHT22;8017;50.812;4.934;2023-03-21T08:15:10;12.00;99.90
15834;DHT22;8017;50.812;4.934;2023-03-21T08:18:12;12.20;99.90
15834;DHT22;8017;50.812;4.934;2023-03-21T08:21:14;12.30;99.90
15834;DHT22;8017;50.812;4.934;2023-03-21T08:24:16;12.40;99.90
15834;DHT22;8017;50.812;4.934;2023-03-21T08:27:18;12.60;99.90
15834;DHT22;8017;50.812;4.934;2023-03-21T08:30:23;12.60;99.90
15834;DHT22;8017;50.812;4.934;2023-03-21T08:33:26;12.80;99.90
15834;DHT22;8017;50.812;4.934;2023-03-21T08:36:29;13.00;99.90
15834;DHT22;8017;50.812;4.934;2023-03-21T08:39:31;12.90;99.90
15834;DHT22;8017;50.812;4.934;2023-03-21T08:42:33;12.90;99.90
15834;DHT22;8017;50.812;4.934;2023-03-21T08:45:37;13.00;99.90
15834;DHT22;8017;50.812;4.934;2023-03-21T08:48:39;13.10;99.90
15834;DHT22;8017;50.812;4.934;2023-03-21T08:51:40;13.20;99.90
15834;DHT22;8017;50.812;4.934;2023-03-21T08:54:45;13.10;99.90
15834;DHT22;8017;50.812;4.934;2023-03-21T08:57:48;13.10;99.90
15834;DHT22;8017;50.812;4.934;2023-03-21T09:00:51;12.90;99.90
15834;DHT22;8017;50.812;4.934;2023-03-21T09:03:53;12.80;99.90
15834;DHT22;8017;50.812;4.934;2023-03-21T09:06:55;12.80;99.90
15834;DHT22;8017;50.812;4.934;2023-03-21T09:09:57;12.70;99.90
15834;DHT22;8017;50.812;4.934;2023-03-21T09:12:59;12.80;99.90
15834;DHT22;8017;50.812;4.934;2023-03-21T09:16:03;12.90;99.90
15834;DHT22;8017;50.812;4.934;2023-03-21T09:19:05;12.80;99.90
15834;DHT22;8017;50.812;4.934;2023-03-21T09:22:08;12.80;99.90
15834;DHT22;8017;50.812;4.934;2023-03-21T09:25:14;12.80;99.90
15834;DHT22;8017;50.812;4.934;2023-03-21T09:28:16;12.80;99.90
15834;DHT22;8017;50.812;4.934;2023-03-21T09:31:19;12.80;99.90
15834;DHT22;8017;50.812;4.934;2023-03-21T09:34:22;12.80;99.90
15834;DHT22;8017;50.812;4.934;2023-03-21T09:37:24;12.90;99.90
15834;DHT22;8017;50.812;4.934;2023-03-21T09:40:38;13.00;99.90
15834;DHT22;8017;50.812;4.934;2023-03-21T09:43:55;13.00;99.90
15834;DHT22;8017;50.812;4.934;2023-03-21T09:47:04;13.20;99.90
15834;DHT22;8017;50.812;4.934;2023-03-21T09:50:14;13.20;99.90
15834;DHT22;8017;50.812;4.934;2023-03-21T09:53:21;13.40;99.90
15834;DHT22;8017;50.812;4.934;2023-03-21T09:56:24;13.50;99.90
15834;DHT22;8017;50.812;4.934;2023-03-21T09:59:31;13.70;99.90
15834;DHT22;8017;50.812;4.934;2023-03-21T10:02:39;14.00;99.90
15834;DHT22;8017;50.812;4.934;2023-03-21T10:05:45;14.30;99.90
15834;DHT22;8017;50.812;4.934;2023-03-21T10:08:48;14.50;99.90
15834;DHT22;8017;50.812;4.934;2023-03-21T10:11:55;14.50;99.90
15834;DHT22;8017;50.812;4.934;2023-03-21T10:14:59;14.40;99.90
15834;DHT22;8017;50.812;4.934;2023-03-21T10:18:10;14.60;99.90
15834;DHT22;8017;50.812;4.934;2023-03-21T10:21:19;14.60;99.90
15834;DHT22;8017;50.812;4.934;2023-03-21T10:24:23;14.70;99.90
15834;DHT22;8017;50.812;4.934;2023-03-21T10:27:27;14.80;99.90
15834;DHT22;8017;50.812;4.934;2023-03-21T10:30:36;14.80;99.90
15834;DHT22;8017;50.812;4.934;2023-03-21T10:33:42;15.00;99.90
15834;DHT22;8017;50.812;4.934;2023-03-21T10:36:45;15.10;99.90
15834;DHT22;8017;50.812;4.934;2023-03-21T10:39:48;15.20;99.90
15834;DHT22;8017;50.812;4.934;2023-03-21T10:42:54;15.20;99.90
15834;DHT22;8017;50.812;4.934;2023-03-21T10:45:56;15.00;99.90
15834;DHT22;8017;50.812;4.934;2023-03-21T10:48:59;14.90;99.90
15834;DHT22;8017;50.812;4.934;2023-03-21T10:52:06;14.90;99.90
15834;DHT22;8017;50.812;4.934;2023-03-21T10:55:17;15.00;99.90
15834;DHT22;8017;50.812;4.934;2023-03-21T10:58:24;15.10;99.90
15834;DHT22;8017;50.812;4.934;2023-03-21T11:01:29;15.10;99.90
15834;DHT22;8017;50.812;4.934;2023-03-21T11:04:36;15.30;99.90
15834;DHT22;8017;50.812;4.934;2023-03-21T11:07:38;15.60;99.90
15834;DHT22;8017;50.812;4.934;2023-03-21T11:10:51;15.70;99.90
15834;DHT22;8017;50.812;4.934;2023-03-21T11:13:59;15.80;99.90
15834;DHT22;8017;50.812;4.934;2023-03-21T11:17:20;15.80;99.90
15834;DHT22;8017;50.812;4.934;2023-03-21T11:20:24;15.70;99.90
15834;DHT22;8017;50.812;4.934;2023-03-21T11:23:29;15.60;99.90
15834;DHT22;8017;50.812;4.934;2023-03-21T11:26:35;15.90;99.90
15834;DHT22;8017;50.812;4.934;2023-03-21T11:29:39;16.20;99.90
15834;DHT22;8017;50.812;4.934;2023-03-21T11:32:42;16.20;99.90
15834;DHT22;8017;50.812;4.934;2023-03-21T11:36:01;16.20;99.90
15834;DHT22;8017;50.812;4.934;2023-03-21T11:39:33;16.20;99.90
15834;DHT22;8017;50.812;4.934;2023-03-21T11:42:41;16.10;99.90
15834;DHT22;8017;50.812;4.934;2023-03-21T11:45:55;15.90;99.90
15834;DHT22;8017;50.812;4.934;2023-03-21T11:48:58;15.60;99.90
15834;DHT22;8017;50.812;4.934;2023-03-21T11:52:13;15.50;99.90
15834;DHT22;8017;50.812;4.934;2023-03-21T11:55:33;15.50;99.90
15834;DHT22;8017;50.812;4.934;2023-03-21T11:58:45;15.60;99.90
15834;DHT22;8017;50.812;4.934;2023-03-21T12:02:06;15.90;99.90
15834;DHT22;8017;50.812;4.934;2023-03-21T12:05:17;16.00;99.90
15834;DHT22;8017;50.812;4.934;2023-03-21T12:08:31;16.30;99.90
15834;DHT22;8017;50.812;4.934;2023-03-21T12:11:45;16.30;99.90
15834;DHT22;8017;50.812;4.934;2023-03-21T12:14:57;16.20;99.90
15834;DHT22;8017;50.812;4.934;2023-03-21T12:18:05;16.10;99.90
15834;DHT22;8017;50.812;4.934;2023-03-21T12:21:14;16.00;99.90
15834;DHT22;8017;50.812;4.934;2023-03-21T12:24:22;15.90;99.90
15834;DHT22;8017;50.812;4.934;2023-03-21T12:27:34;16.10;99.90
15834;DHT22;8017;50.812;4.934;2023-03-21T12:30:48;16.00;99.90
15834;DHT22;8017;50.812;4.934;2023-03-21T12:34:04;15.90;99.90
15834;DHT22;8017;50.812;4.934;2023-03-21T12:37:16;15.90;99.90
15834;DHT22;8017;50.812;4.934;2023-03-21T12:40:38;16.10;99.90
15834;DHT22;8017;50.812;4.934;2023-03-21T12:43:46;16.20;99.90
15834;DHT22;8017;50.812;4.934;2023-03-21T12:46:53;16.40;99.90
15834;DHT22;8017;50.812;4.934;2023-03-21T12:50:00;16.60;99.90
15834;DHT22;8017;50.812;4.934;2023-03-21T12:53:25;16.70;99.90
15834;DHT22;8017;50.812;4.934;2023-03-21T12:56:32;16.50;99.90
15834;DHT22;8017;50.812;4.934;2023-03-21T12:59:38;16.30;99.90
15834;DHT22;8017;50.812;4.934;2023-03-21T13:02:44;16.10;99.90
15834;DHT22;8017;50.812;4.934;2023-03-21T13:05:51;16.20;99.90
15834;DHT22;8017;50.812;4.934;2023-03-21T13:08:58;16.10;99.90
15834;DHT22;8017;50.812;4.934;2023-03-21T13:12:18;16.30;99.90
15834;DHT22;8017;50.812;4.934;2023-03-21T13:15:43;16.40;99.90
15834;DHT22;8017;50.812;4.934;2023-03-21T13:18:53;16.30;99.90
15834;DHT22;8017;50.812;4.934;2023-03-21T13:22:05;16.30;99.90
15834;DHT22;8017;50.812;4.934;2023-03-21T13:25:16;16.10;99.90
15834;DHT22;8017;50.812;4.934;2023-03-21T13:28:24;16.10;99.90
15834;DHT22;8017;50.812;4.934;2023-03-21T13:31:27;16.50;99.90
15834;DHT22;8017;50.812;4.934;2023-03-21T13:34:29;16.50;99.90
15834;DHT22;8017;50.812;4.934;2023-03-21T13:37:33;16.70;99.90
15834;DHT22;8017;50.812;4.934;2023-03-21T13:40:37;16.90;99.90
15834;DHT22;8017;50.812;4.934;2023-03-21T13:43:51;17.10;99.90
15834;DHT22;8017;50.812;4.934;2023-03-21T13:46:54;17.00;99.90
15834;DHT22;8017;50.812;4.934;2023-03-21T13:50:22;17.10;99.90
15834;DHT22;8017;50.812;4.934;2023-03-21T13:53:30;17.20;99.90
15834;DHT22;8017;50.812;4.934;2023-03-21T13:56:48;17.40;99.90
15834;DHT22;8017;50.812;4.934;2023-03-21T14:03:34;17.00;99.90
15834;DHT22;8017;50.812;4.934;2023-03-21T14:06:41;16.80;99.90
15834;DHT22;8017;50.812;4.934;2023-03-21T14:09:46;16.70;99.90
15834;DHT22;8017;50.812;4.934;2023-03-21T14:12:48;16.50;99.90
15834;DHT22;8017;50.812;4.934;2023-03-21T14:15:53;16.40;99.90
15834;DHT22;8017;50.812;4.934;2023-03-21T14:19:00;16.20;99.90
15834;DHT22;8017;50.812;4.934;2023-03-21T14:22:02;16.10;99.90
15834;DHT22;8017;50.812;4.934;2023-03-21T14:25:07;16.30;99.90
15834;DHT22;8017;50.812;4.934;2023-03-21T14:28:14;16.60;99.90
15834;DHT22;8017;50.812;4.934;2023-03-21T14:31:20;16.90;99.90
15834;DHT22;8017;50.812;4.934;2023-03-21T14:34:22;16.90;99.90
15834;DHT22;8017;50.812;4.934;2023-03-21T14:37:27;17.00;99.90
15834;DHT22;8017;50.812;4.934;2023-03-21T14:40:29;16.90;99.90
15834;DHT22;8017;50.812;4.934;2023-03-21T14:43:31;16.70;99.90
15834;DHT22;8017;50.812;4.934;2023-03-21T14:46:35;16.80;99.90
15834;DHT22;8017;50.812;4.934;2023-03-21T14:49:37;16.90;99.90
15834;DHT22;8017;50.812;4.934;2023-03-21T14:52:40;17.00;99.90
15834;DHT22;8017;50.812;4.934;2023-03-21T14:55:45;16.90;99.90
15834;DHT22;8017;50.812;4.934;2023-03-21T14:58:49;16.80;99.90
15834;DHT22;8017;50.812;4.934;2023-03-21T15:01:53;16.70;99.90
15834;DHT22;8017;50.812;4.934;2023-03-21T15:04:57;16.60;99.90
15834;DHT22;8017;50.812;4.934;2023-03-21T15:08:04;16.80;99.90
15834;DHT22;8017;50.812;4.934;2023-03-21T15:11:11;16.70;99.90
15834;DHT22;8017;50.812;4.934;2023-03-21T15:14:14;16.60;99.90
15834;DHT22;8017;50.812;4.934;2023-03-21T15:17:18;16.30;99.90
15834;DHT22;8017;50.812;4.934;2023-03-21T15:20:23;15.80;99.90
15834;DHT22;8017;50.812;4.934;2023-03-21T15:23:29;15.70;99.90
15834;DHT22;8017;50.812;4.934;2023-03-21T15:26:35;15.50;99.90
15834;DHT22;8017;50.812;4.934;2023-03-21T15:29:37;15.50;99.90
15834;DHT22;8017;50.812;4.934;2023-03-21T15:32:40;15.50;99.90
15834;DHT22;8017;50.812;4.934;2023-03-21T15:35:45;15.40;99.90
15834;DHT22;8017;50.812;4.934;2023-03-21T15:38:54;15.40;99.90
15834;DHT22;8017;50.812;4.934;2023-03-21T15:42:02;15.20;99.90
15834;DHT22;8017;50.812;4.934;2023-03-21T15:45:14;15.10;99.90
15834;DHT22;8017;50.812;4.934;2023-03-21T15:48:24;15.20;99.90
15834;DHT22;8017;50.812;4.934;2023-03-21T15:51:26;15.10;99.90
15834;DHT22;8017;50.812;4.934;2023-03-21T15:54:30;15.00;99.90
15834;DHT22;8017;50.812;4.934;2023-03-21T15:57:33;14.90;99.90
15834;DHT22;8017;50.812;4.934;2023-03-21T16:00:39;14.90;99.90
15834;DHT22;8017;50.812;4.934;2023-03-21T16:03:45;14.90;99.90
15834;DHT22;8017;50.812;4.934;2023-03-21T16:06:52;14.80;99.90
15834;DHT22;8017;50.812;4.934;2023-03-21T16:09:59;14.70;99.90
15834;DHT22;8017;50.812;4.934;2023-03-21T16:13:01;14.60;99.90
15834;DHT22;8017;50.812;4.934;2023-03-21T16:16:05;14.50;99.90
15834;DHT22;8017;50.812;4.934;2023-03-21T16:19:08;14.40;99.90
15834;DHT22;8017;50.812;4.934;2023-03-21T16:22:10;14.40;99.90
15834;DHT22;8017;50.812;4.934;2023-03-21T16:25:12;14.30;99.90
15834;DHT22;8017;50.812;4.934;2023-03-21T16:28:15;14.30;99.90
15834;DHT22;8017;50.812;4.934;2023-03-21T16:31:20;14.30;99.90
15834;DHT22;8017;50.812;4.934;2023-03-21T16:34:23;14.30;99.90
15834;DHT22;8017;50.812;4.934;2023-03-21T16:37:26;14.20;99.90
15834;DHT22;8017;50.812;4.934;2023-03-21T16:40:30;14.20;99.90
15834;DHT22;8017;50.812;4.934;2023-03-21T16:43:33;14.10;99.90
15834;DHT22;8017;50.812;4.934;2023-03-21T16:46:38;14.00;99.90
15834;DHT22;8017;50.812;4.934;2023-03-21T16:49:42;13.90;99.90
15834;DHT22;8017;50.812;4.934;2023-03-21T16:52:44;13.70;99.90
15834;DHT22;8017;50.812;4.934;2023-03-21T16:55:46;13.60;99.90
15834;DHT22;8017;50.812;4.934;2023-03-21T16:58:49;13.50;99.90
15834;DHT22;8017;50.812;4.934;2023-03-21T17:01:51;13.50;99.90
15834;DHT22;8017;50.812;4.934;2023-03-21T17:04:54;13.50;99.90
15834;DHT22;8017;50.812;4.934;2023-03-21T17:07:57;13.50;99.90
15834;DHT22;8017;50.812;4.934;2023-03-21T17:11:01;13.50;99.90
15834;DHT22;8017;50.812;4.934;2023-03-21T17:14:06;13.40;99.90
15834;DHT22;8017;50.812;4.934;2023-03-21T17:17:10;13.40;99.90
15834;DHT22;8017;50.812;4.934;2023-03-21T17:20:18;13.50;99.90
15834;DHT22;8017;50.812;4.934;2023-03-21T17:23:21;13.30;99.90
15834;DHT22;8017;50.812;4.934;2023-03-21T17:26:24;13.20;99.90
15834;DHT22;8017;50.812;4.934;2023-03-21T17:29:27;13.10;99.90
15834;DHT22;8017;50.812;4.934;2023-03-21T17:32:29;12.90;99.90
15834;DHT22;8017;50.812;4.934;2023-03-21T17:35:32;12.90;99.90
15834;DHT22;8017;50.812;4.934;2023-03-21T17:38:34;12.80;99.90
15834;DHT22;8017;50.812;4.934;2023-03-21T17:41:37;12.80;99.90
15834;DHT22;8017;50.812;4.934;2023-03-21T17:44:39;12.80;99.90
15834;DHT22;8017;50.812;4.934;2023-03-21T17:47:41;12.80;99.90
15834;DHT22;8017;50.812;4.934;2023-03-21T17:50:44;12.80;99.90
15834;DHT22;8017;50.812;4.934;2023-03-21T17:53:48;12.80;99.90
15834;DHT22;8017;50.812;4.934;2023-03-21T17:56:50;12.70;99.90
15834;DHT22;8017;50.812;4.934;2023-03-21T17:59:54;12.70;99.90
15834;DHT22;8017;50.812;4.934;2023-03-21T18:02:56;12.70;99.90
15834;DHT22;8017;50.812;4.934;2023-03-21T18:05:59;12.60;99.90
15834;DHT22;8017;50.812;4.934;2023-03-21T18:09:02;12.70;99.90
15834;DHT22;8017;50.812;4.934;2023-03-21T18:12:07;12.70;99.90
15834;DHT22;8017;50.812;4.934;2023-03-21T18:15:10;12.70;99.90
15834;DHT22;8017;50.812;4.934;2023-03-21T18:18:12;12.70;99.90
15834;DHT22;8017;50.812;4.934;2023-03-21T18:21:16;12.60;99.90
15834;DHT22;8017;50.812;4.934;2023-03-21T18:24:18;12.70;99.90
15834;DHT22;8017;50.812;4.934;2023-03-21T18:27:20;12.70;99.90
15834;DHT22;8017;50.812;4.934;2023-03-21T18:30:22;12.60;99.90
15834;DHT22;8017;50.812;4.934;2023-03-21T18:33:24;12.60;99.90
15834;DHT22;8017;50.812;4.934;2023-03-21T18:36:28;12.50;99.90
15834;DHT22;8017;50.812;4.934;2023-03-21T18:39:30;12.50;99.90
15834;DHT22;8017;50.812;4.934;2023-03-21T18:42:32;12.50;99.90
15834;DHT22;8017;50.812;4.934;2023-03-21T18:45:34;12.40;99.90
15834;DHT22;8017;50.812;4.934;2023-03-21T18:48:36;12.40;99.90
15834;DHT22;8017;50.812;4.934;2023-03-21T18:51:40;12.30;99.90
15834;DHT22;8017;50.812;4.934;2023-03-21T18:54:44;12.30;99.90
15834;DHT22;8017;50.812;4.934;2023-03-21T18:57:45;12.30;99.90
15834;DHT22;8017;50.812;4.934;2023-03-21T19:00:48;12.30;99.90
15834;DHT22;8017;50.812;4.934;2023-03-21T19:03:51;12.30;99.90
15834;DHT22;8017;50.812;4.934;2023-03-21T19:07:00;12.40;99.90
15834;DHT22;8017;50.812;4.934;2023-03-21T19:10:02;12.50;99.90
15834;DHT22;8017;50.812;4.934;2023-03-21T19:13:04;12.40;99.90
15834;DHT22;8017;50.812;4.934;2023-03-21T19:16:07;12.50;99.90
15834;DHT22;8017;50.812;4.934;2023-03-21T19:19:09;12.50;99.90
15834;DHT22;8017;50.812;4.934;2023-03-21T19:22:12;12.60;99.90
15834;DHT22;8017;50.812;4.934;2023-03-21T19:25:15;12.50;99.90
15834;DHT22;8017;50.812;4.934;2023-03-21T19:28:17;12.50;99.90
15834;DHT22;8017;50.812;4.934;2023-03-21T19:31:19;12.60;99.90
15834;DHT22;8017;50.812;4.934;2023-03-21T19:34:21;12.60;99.90
15834;DHT22;8017;50.812;4.934;2023-03-21T19:37:25;12.60;99.90
15834;DHT22;8017;50.812;4.934;2023-03-21T19:40:28;12.70;99.90
15834;DHT22;8017;50.812;4.934;2023-03-21T19:43:29;12.60;99.90
15834;DHT22;8017;50.812;4.934;2023-03-21T19:46:31;12.80;99.90
15834;DHT22;8017;50.812;4.934;2023-03-21T19:49:33;12.80;99.90
15834;DHT22;8017;50.812;4.934;2023-03-21T19:52:37;12.90;99.90